createdAt,value
2022-07-27T00:01:40.610Z,72.48
2022-07-27T00:04:17.059Z,74.15
2022-07-27T00:06:44.414Z,74.48
2022-07-27T00:09:11.814Z,74.26
2022-07-27T00:11:38.618Z,74.26
2022-07-27T00:14:05.159Z,73.33
2022-07-27T00:16:32.308Z,73.58
2022-07-27T00:18:59.137Z,73.55
2022-07-27T00:21:27.005Z,73.17
2022-07-27T00:23:57.876Z,72.73
2022-07-27T00:26:24.460Z,73.01
2022-07-27T00:28:51.467Z,73.32
2022-07-27T00:31:18.217Z,73.15
2022-07-27T00:33:44.926Z,73.25
2022-07-27T00:36:11.675Z,73.49
2022-07-27T00:38:41.227Z,73.81
2022-07-27T00:41:07.801Z,73.40
2022-07-27T00:43:53.786Z,73.82
2022-07-27T00:46:21.191Z,75.02
2022-07-27T00:48:48.416Z,74.75
2022-07-27T00:51:17.464Z,75.71
2022-07-27T00:53:44.012Z,76.45
2022-07-27T00:56:10.813Z,77.15
2022-07-27T00:58:38.679Z,76.73
2022-07-27T01:01:05.692Z,77.42
2022-07-27T01:03:32.214Z,78.29
2022-07-27T01:05:59.325Z,78.36
2022-07-27T01:08:28.499Z,78.50
2022-07-27T01:10:57.271Z,78.79
2022-07-27T01:13:25.676Z,78.52
2022-07-27T01:15:53.047Z,78.42
2022-07-27T01:18:31.853Z,78.62
2022-07-27T01:21:00.239Z,79.41
2022-07-27T01:23:27.767Z,79.00
2022-07-27T01:25:55.194Z,78.43
2022-07-27T01:28:21.628Z,78.30
2022-07-27T01:30:48.221Z,78.70
2022-07-27T01:33:15.039Z,79.11
2022-07-27T01:35:41.822Z,79.27
2022-07-27T01:38:10.416Z,78.60
2022-07-27T01:40:37.420Z,78.51
2022-07-27T01:43:05.305Z,78.74
2022-07-27T01:45:32.093Z,78.83
2022-07-27T01:47:58.638Z,79.23
2022-07-27T01:50:25.293Z,78.35
2022-07-27T01:52:51.733Z,78.56
2022-07-27T01:55:18.152Z,79.09
2022-07-27T01:57:44.659Z,79.04
2022-07-27T02:00:12.209Z,79.06
2022-07-27T02:02:41.973Z,78.55
2022-07-27T02:05:11.842Z,78.28
2022-07-27T02:07:42.464Z,78.32
2022-07-27T02:10:10.294Z,78.41
2022-07-27T02:12:37.523Z,78.77
2022-07-27T02:15:05.951Z,79.07
2022-07-27T02:17:32.680Z,79.47
2022-07-27T02:19:59.467Z,79.42
2022-07-27T02:22:26.280Z,79.49
2022-07-27T02:24:53.195Z,79.14
2022-07-27T02:27:19.744Z,78.55
2022-07-27T02:29:46.227Z,78.91
2022-07-27T02:32:12.730Z,79.17
2022-07-27T02:34:39.186Z,78.92
2022-07-27T02:37:05.716Z,78.84
2022-07-27T02:39:32.207Z,78.44
2022-07-27T02:41:58.989Z,78.43
2022-07-27T02:44:25.557Z,79.35
2022-07-27T02:46:52.384Z,79.38
2022-07-27T02:49:18.906Z,79.50
2022-07-27T02:51:45.555Z,80.08
2022-07-27T02:54:12.002Z,80.07
2022-07-27T02:56:38.446Z,80.41
2022-07-27T02:59:04.906Z,80.66
2022-07-27T03:01:32.039Z,81.35
2022-07-27T03:03:58.562Z,80.76
2022-07-27T03:06:25.077Z,80.63
2022-07-27T03:08:51.624Z,81.05
2022-07-27T03:11:18.314Z,81.08
2022-07-27T03:13:45.171Z,80.85
2022-07-27T03:16:11.746Z,80.38
2022-07-27T03:18:38.375Z,80.85
2022-07-27T03:21:04.817Z,81.32
2022-07-27T03:23:33.163Z,80.97
2022-07-27T03:26:00.397Z,80.72
2022-07-27T03:28:27.157Z,81.10
2022-07-27T03:30:53.773Z,80.64
2022-07-27T03:33:21.487Z,80.67
2022-07-27T03:35:48.527Z,80.47
2022-07-27T03:38:17.552Z,80.28
2022-07-27T03:40:45.229Z,80.69
2022-07-27T03:43:11.671Z,80.68
2022-07-27T03:45:38.472Z,80.37
2022-07-27T03:48:05.331Z,80.75
2022-07-27T03:50:32.281Z,81.13
2022-07-27T03:52:59.328Z,80.81
2022-07-27T03:55:25.788Z,80.52
2022-07-27T03:57:52.641Z,80.55
2022-07-27T04:00:20.045Z,80.13
2022-07-27T04:02:46.825Z,80.45
2022-07-27T04:05:13.350Z,80.36
2022-07-27T04:07:40.693Z,80.09
2022-07-27T04:10:08.259Z,80.16
2022-07-27T04:12:39.407Z,80.30
2022-07-27T04:15:07.059Z,80.10
2022-07-27T04:17:56.547Z,79.78
2022-07-27T04:20:20.094Z,80.23
2022-07-27T04:22:46.567Z,80.72
2022-07-27T04:25:13.071Z,80.82
2022-07-27T04:27:39.574Z,81.04
2022-07-27T04:30:09.490Z,80.70
2022-07-27T04:32:36.483Z,81.23
2022-07-27T04:35:03.199Z,82.12
2022-07-27T04:37:30.331Z,82.16
2022-07-27T04:39:58.180Z,82.55
2022-07-27T04:42:24.922Z,81.79
2022-07-27T04:44:51.451Z,81.93
2022-07-27T04:47:18.058Z,81.98
2022-07-27T04:49:44.616Z,82.01
2022-07-27T04:52:11.216Z,82.99
2022-07-27T04:54:37.694Z,83.26
2022-07-27T04:57:04.353Z,83.41
2022-07-27T04:59:30.889Z,83.44
2022-07-27T05:01:57.642Z,82.24
2022-07-27T05:04:24.296Z,82.65
2022-07-27T05:06:51.227Z,82.69
2022-07-27T05:09:22.393Z,82.80
2022-07-27T05:11:51.083Z,82.10
2022-07-27T05:14:21.068Z,81.89
2022-07-27T05:16:48.767Z,81.49
2022-07-27T05:19:16.077Z,81.27
2022-07-27T05:21:43.029Z,82.13
2022-07-27T05:24:10.161Z,80.47
2022-07-27T05:26:37.182Z,81.82
2022-07-27T05:29:04.069Z,81.42
2022-07-27T05:31:30.754Z,81.18
2022-07-27T05:33:58.475Z,80.52
2022-07-27T05:36:25.829Z,80.33
2022-07-27T05:38:52.612Z,80.72
2022-07-27T05:41:24.026Z,80.82
2022-07-27T05:43:51.344Z,80.54
2022-07-27T05:46:17.955Z,79.99
2022-07-27T05:48:44.668Z,79.70
2022-07-27T05:51:11.296Z,80.13
2022-07-27T05:53:38.058Z,79.97
2022-07-27T05:56:05.123Z,79.98
2022-07-27T05:58:31.542Z,80.44
2022-07-27T06:00:58.815Z,80.43
2022-07-27T06:03:25.716Z,80.05
2022-07-27T06:05:52.563Z,79.64
2022-07-27T06:08:19.036Z,78.16
2022-07-27T06:10:45.782Z,77.56
2022-07-27T06:13:12.302Z,76.78
2022-07-27T06:15:39.757Z,75.88
2022-07-27T06:18:08.970Z,74.65
2022-07-27T06:20:35.892Z,73.56
2022-07-27T06:23:08.243Z,72.77
2022-07-27T06:25:35.749Z,71.88
2022-07-27T06:28:05.206Z,70.23
2022-07-27T06:30:32.990Z,69.25
2022-07-27T06:32:59.772Z,69.30
2022-07-27T06:35:30.206Z,69.35
2022-07-27T06:37:58.640Z,69.42
2022-07-27T06:40:28.659Z,68.22
2022-07-27T06:42:56.167Z,65.66
2022-07-27T06:45:22.627Z,66.58
2022-07-27T06:47:51.557Z,63.10
2022-07-27T06:50:20.231Z,61.95
2022-07-27T06:52:55.813Z,62.27
2022-07-27T06:55:22.260Z,61.94
2022-07-27T06:57:49.908Z,61.29
2022-07-27T07:00:16.762Z,61.59
2022-07-27T07:03:00.693Z,60.85
2022-07-27T07:05:28.466Z,60.59
2022-07-27T07:07:55.859Z,60.69
2022-07-27T07:10:24.068Z,59.95
2022-07-27T07:12:55.473Z,58.33
2022-07-27T07:15:24.513Z,58.76
2022-07-27T07:17:58.874Z,58.10
2022-07-27T07:20:25.831Z,58.16
2022-07-27T07:22:52.794Z,58.32
2022-07-27T07:25:19.834Z,57.20
2022-07-27T07:27:46.261Z,57.00
2022-07-27T07:30:12.969Z,58.16
2022-07-27T07:32:39.483Z,57.19
2022-07-27T07:35:06.836Z,55.55
2022-07-27T07:37:33.985Z,54.64
2022-07-27T07:40:25.202Z,53.67
2022-07-27T07:42:54.772Z,53.05
2022-07-27T07:45:22.823Z,52.92
2022-07-27T07:47:51.551Z,52.34
2022-07-27T07:50:18.327Z,51.36
2022-07-27T07:52:45.324Z,51.04
2022-07-27T07:55:11.854Z,50.52
2022-07-27T07:57:38.747Z,50.70
2022-07-27T08:00:07.495Z,50.86
2022-07-27T08:02:50.461Z,49.49
2022-07-27T08:05:17.115Z,48.56
2022-07-27T08:07:44.836Z,47.50
2022-07-27T08:10:13.090Z,46.24
2022-07-27T08:12:42.332Z,46.69
2022-07-27T08:15:09.982Z,46.56
2022-07-27T08:17:36.465Z,46.93
2022-07-27T08:20:04.267Z,45.28
2022-07-27T08:22:37.241Z,45.23
2022-07-27T08:25:05.251Z,44.91
2022-07-27T08:27:40.235Z,44.70
2022-07-27T08:30:08.790Z,44.53
2022-07-27T08:32:55.972Z,45.50
2022-07-27T08:35:22.950Z,45.24
2022-07-27T08:37:49.586Z,45.93
2022-07-27T08:43:05.819Z,45.66
2022-07-27T08:45:33.466Z,45.15
2022-07-27T08:48:00.307Z,44.50
2022-07-27T08:50:29.419Z,45.01
2022-07-27T08:53:00.700Z,44.93
2022-07-27T08:55:28.539Z,44.82
2022-07-27T08:57:59.108Z,44.57
2022-07-27T09:00:30.503Z,44.37
2022-07-27T09:02:57.995Z,44.47
2022-07-27T09:05:25.607Z,43.67
2022-07-27T09:08:08.173Z,44.77
2022-07-27T09:10:38.117Z,43.52
2022-07-27T09:13:18.031Z,42.98
2022-07-27T09:16:15.824Z,41.98
2022-07-27T09:18:37.515Z,41.41
2022-07-27T09:21:09.103Z,42.16
2022-07-27T09:23:35.913Z,42.63
2022-07-27T09:26:30.497Z,42.01
2022-07-27T09:29:08.395Z,41.87
2022-07-27T09:31:46.115Z,41.52
2022-07-27T09:34:25.950Z,41.73
2022-07-27T09:36:54.786Z,43.08
2022-07-27T09:39:24.492Z,43.96
2022-07-27T09:42:00.023Z,41.71
2022-07-27T09:44:43.468Z,41.58
2022-07-27T09:47:28.545Z,41.05
2022-07-27T09:50:17.419Z,38.38
2022-07-27T09:52:44.736Z,38.58
2022-07-27T09:55:11.219Z,40.03
2022-07-27T09:57:56.014Z,41.72
2022-07-27T10:00:23.876Z,40.58
2022-07-27T10:02:52.060Z,41.01
2022-07-27T10:05:21.479Z,39.90
2022-07-27T10:07:49.338Z,40.18
2022-07-27T10:10:40.956Z,37.50
2022-07-27T10:13:07.474Z,39.77
2022-07-27T10:15:34.144Z,41.05
2022-07-27T10:18:08.888Z,42.11
2022-07-27T10:20:39.621Z,42.42
2022-07-27T10:23:07.462Z,42.93
2022-07-27T10:25:37.917Z,42.90
2022-07-27T10:28:18.507Z,42.03
2022-07-27T10:30:49.409Z,41.96
2022-07-27T10:33:48.301Z,42.19
2022-07-27T10:36:17.783Z,39.74
2022-07-27T10:38:46.982Z,40.31
2022-07-27T10:41:39.932Z,40.07
2022-07-27T10:44:17.676Z,40.43
2022-07-27T10:46:46.577Z,41.91
2022-07-27T10:49:18.555Z,42.30
2022-07-27T10:51:45.421Z,42.62
2022-07-27T10:54:33.785Z,41.34
2022-07-27T10:57:04.055Z,41.97
2022-07-27T11:00:06.744Z,41.31
2022-07-27T11:02:40.742Z,40.94
2022-07-27T11:05:07.629Z,37.78
2022-07-27T11:07:44.175Z,37.35
2022-07-27T11:10:12.952Z,35.93
2022-07-27T11:12:41.736Z,36.38
2022-07-27T11:15:09.242Z,36.23
2022-07-27T11:20:23.945Z,37.28
2022-07-27T11:23:40.834Z,35.89
2022-07-27T11:25:40.951Z,36.71
2022-07-27T11:28:07.519Z,35.74
2022-07-27T11:30:34.184Z,36.29
2022-07-27T11:33:05.141Z,37.71
2022-07-27T11:35:31.730Z,38.38
2022-07-27T11:38:00.113Z,39.61
2022-07-27T11:43:14.599Z,40.31
2022-07-27T11:45:42.971Z,40.98
2022-07-27T11:48:12.409Z,41.82
2022-07-27T11:50:59.952Z,41.08
2022-07-27T11:53:27.495Z,40.34
2022-07-27T11:55:54.155Z,39.85
2022-07-27T11:58:20.655Z,40.17
2022-07-27T12:00:47.059Z,40.45
2022-07-27T12:03:23.222Z,41.02
2022-07-27T12:05:59.844Z,40.43
2022-07-27T12:08:27.281Z,40.76
2022-07-27T12:11:01.112Z,40.62
2022-07-27T12:13:35.746Z,40.63
2022-07-27T12:16:02.629Z,38.19
2022-07-27T12:18:44.932Z,37.76
2022-07-27T12:21:18.497Z,37.85
2022-07-27T12:23:54.866Z,38.61
2022-07-27T12:26:25.318Z,39.46
2022-07-27T12:29:07.596Z,38.93
2022-07-27T12:31:35.949Z,40.17
2022-07-27T12:34:06.711Z,40.81
2022-07-27T12:36:33.619Z,39.62
2022-07-27T12:39:00.589Z,39.13
2022-07-27T12:41:31.085Z,38.71
2022-07-27T12:44:16.816Z,41.30
2022-07-27T12:46:52.943Z,38.82
2022-07-27T12:49:24.885Z,39.58
2022-07-27T12:51:52.030Z,39.91
2022-07-27T12:54:18.658Z,40.23
2022-07-27T12:56:46.803Z,40.49
2022-07-27T12:59:13.732Z,40.89
2022-07-27T13:01:40.392Z,42.40
2022-07-27T13:04:06.980Z,42.33
2022-07-27T13:06:33.725Z,42.17
2022-07-27T13:09:00.562Z,41.25
2022-07-27T13:11:31.875Z,40.20
2022-07-27T13:13:58.945Z,39.51
2022-07-27T13:16:25.467Z,39.09
2022-07-27T13:18:51.973Z,38.44
2022-07-27T13:21:18.695Z,37.98
2022-07-27T13:23:46.800Z,37.67
2022-07-27T13:26:13.248Z,38.47
2022-07-27T13:28:39.732Z,39.31
2022-07-27T13:31:06.153Z,39.63
2022-07-27T13:33:32.836Z,39.12
2022-07-27T13:36:00.915Z,40.16
2022-07-27T13:38:28.900Z,40.58
2022-07-27T13:40:55.606Z,41.03
2022-07-27T13:43:22.181Z,40.79
2022-07-27T13:45:49.723Z,40.56
2022-07-27T13:48:16.589Z,40.53
2022-07-27T13:50:43.087Z,40.53
2022-07-27T13:53:09.697Z,40.17
2022-07-27T13:55:41.952Z,39.77
2022-07-27T13:58:08.399Z,39.52
2022-07-27T14:00:36.386Z,39.38
2022-07-27T14:03:02.921Z,39.44
2022-07-27T14:05:30.068Z,37.97
2022-07-27T14:07:58.153Z,36.94
2022-07-27T14:10:32.111Z,37.45
2022-07-27T14:13:07.933Z,37.50
2022-07-27T14:15:52.984Z,37.00
2022-07-27T14:18:27.560Z,37.53
2022-07-27T14:20:59.365Z,36.46
2022-07-27T14:23:27.270Z,36.95
2022-07-27T14:25:56.406Z,37.75
2022-07-27T14:28:24.086Z,38.15
2022-07-27T14:30:51.993Z,38.41
2022-07-27T14:33:18.791Z,39.35
2022-07-27T14:35:46.239Z,41.17
2022-07-27T14:38:12.960Z,42.21
2022-07-27T14:40:40.517Z,42.48
2022-07-27T14:43:07.379Z,42.54
2022-07-27T14:45:44.769Z,41.57
2022-07-27T14:48:20.354Z,42.16
2022-07-27T14:50:51.838Z,41.68
2022-07-27T14:53:18.272Z,41.98
2022-07-27T14:55:44.824Z,42.33
2022-07-27T14:58:11.529Z,41.84
2022-07-27T15:00:39.712Z,41.32
2022-07-27T15:03:07.236Z,41.15
2022-07-27T15:05:49.998Z,41.16
2022-07-27T15:08:21.553Z,41.33
2022-07-27T15:10:49.169Z,40.96
2022-07-27T15:13:17.134Z,41.15
2022-07-27T15:15:43.933Z,40.93
2022-07-27T15:18:10.510Z,40.21
2022-07-27T15:20:37.158Z,40.63
2022-07-27T15:23:04.367Z,40.96
2022-07-27T15:25:31.154Z,41.08
2022-07-27T15:27:58.189Z,41.55
2022-07-27T15:30:24.676Z,42.15
2022-07-27T15:32:51.449Z,42.70
2022-07-27T15:35:18.113Z,43.28
2022-07-27T15:37:54.049Z,42.89
2022-07-27T15:40:36.883Z,43.51
2022-07-27T15:43:22.119Z,43.42
2022-07-27T15:45:50.761Z,43.62
2022-07-27T15:48:19.704Z,42.91
2022-07-27T15:50:49.858Z,42.35
2022-07-27T15:53:18.494Z,42.40
2022-07-27T15:55:45.028Z,42.75
2022-07-27T15:58:13.384Z,42.00
2022-07-27T16:00:41.249Z,41.51
2022-07-27T16:03:09.697Z,41.58
2022-07-27T16:05:37.123Z,41.55
2022-07-27T16:08:03.950Z,41.69
2022-07-27T16:10:31.247Z,40.84
2022-07-27T16:12:57.942Z,39.53
2022-07-27T16:15:44.736Z,39.33
2022-07-27T16:18:11.723Z,39.59
2022-07-27T16:20:38.290Z,39.50
2022-07-27T16:23:19.149Z,39.84
2022-07-27T16:26:07.828Z,39.93
2022-07-27T16:28:46.307Z,40.62
2022-07-27T16:31:14.289Z,40.51
2022-07-27T16:33:43.950Z,40.22
2022-07-27T16:36:10.819Z,41.08
2022-07-27T16:38:39.316Z,40.64
2022-07-27T16:41:17.325Z,40.72
2022-07-27T16:43:43.790Z,41.99
2022-07-27T16:46:10.717Z,42.45
2022-07-27T16:48:42.226Z,42.89
2022-07-27T16:51:11.202Z,42.72
2022-07-27T16:53:42.390Z,43.28
2022-07-27T16:56:09.534Z,43.54
2022-07-27T16:58:36.647Z,42.89
2022-07-27T17:01:03.646Z,43.02
2022-07-27T17:03:30.278Z,43.67
2022-07-27T17:05:59.732Z,43.33
2022-07-27T17:08:29.478Z,42.47
2022-07-27T17:10:55.957Z,43.09
2022-07-27T17:13:22.625Z,42.91
2022-07-27T17:16:00.773Z,43.24
2022-07-27T17:18:28.432Z,43.33
2022-07-27T17:20:55.092Z,42.69
2022-07-27T17:23:21.529Z,42.53
2022-07-27T17:25:48.997Z,42.84
2022-07-27T17:28:16.349Z,42.09
2022-07-27T17:30:43.240Z,43.34
2022-07-27T17:33:09.793Z,43.34
2022-07-27T17:35:36.332Z,43.68
2022-07-27T17:38:06.516Z,44.48
2022-07-27T17:40:34.546Z,45.32
2022-07-27T17:43:02.104Z,45.96
2022-07-27T17:45:29.609Z,46.63
2022-07-27T17:47:56.078Z,47.02
2022-07-27T17:50:22.775Z,46.71
2022-07-27T17:52:50.692Z,47.55
2022-07-27T17:55:17.139Z,47.61
2022-07-27T17:57:44.494Z,47.38
2022-07-27T18:00:11.439Z,48.23
2022-07-27T18:02:37.912Z,47.85
2022-07-27T18:05:04.837Z,47.99
2022-07-27T18:07:39.155Z,48.50
2022-07-27T18:10:08.561Z,48.51
2022-07-27T18:12:35.742Z,48.63
2022-07-27T18:15:21.471Z,48.88
2022-07-27T18:17:48.001Z,49.17
2022-07-27T18:20:14.594Z,49.17
2022-07-27T18:22:41.632Z,48.95
2022-07-27T18:25:09.059Z,48.77
2022-07-27T18:27:35.848Z,49.31
2022-07-27T18:30:05.658Z,49.49
2022-07-27T18:32:33.026Z,49.42
2022-07-27T18:35:02.040Z,48.99
2022-07-27T18:37:29.172Z,48.60
2022-07-27T18:39:55.632Z,48.66
2022-07-27T18:42:22.179Z,48.82
2022-07-27T18:44:48.812Z,48.68
2022-07-27T18:47:15.354Z,49.25
2022-07-27T18:49:41.788Z,48.65
2022-07-27T18:52:08.867Z,49.80
2022-07-27T18:54:35.572Z,49.91
2022-07-27T18:57:02.110Z,50.18
2022-07-27T18:59:29.223Z,50.00
2022-07-27T19:01:56.262Z,50.00
2022-07-27T19:04:24.611Z,50.55
2022-07-27T19:06:52.827Z,50.33
2022-07-27T19:09:19.476Z,50.89
2022-07-27T19:11:45.904Z,51.03
2022-07-27T19:14:12.646Z,51.59
2022-07-27T19:16:39.236Z,52.04
2022-07-27T19:19:08.856Z,52.10
2022-07-27T19:21:39.988Z,52.64
2022-07-27T19:24:06.525Z,52.90
2022-07-27T19:26:33.611Z,53.16
2022-07-27T19:29:00.488Z,53.72
2022-07-27T19:31:28.216Z,54.14
2022-07-27T19:33:56.011Z,54.50
2022-07-27T19:36:23.196Z,54.87
2022-07-27T19:38:50.773Z,55.16
2022-07-27T19:41:18.261Z,55.07
2022-07-27T19:43:44.867Z,55.40
2022-07-27T19:46:11.465Z,55.81
2022-07-27T19:48:38.061Z,56.06
2022-07-27T19:51:06.993Z,55.83
2022-07-27T19:53:35.814Z,56.01
2022-07-27T19:56:03.419Z,56.55
2022-07-27T19:58:31.436Z,56.92
2022-07-27T20:00:58.490Z,56.39
2022-07-27T20:03:25.107Z,56.92
2022-07-27T20:05:51.929Z,56.70
2022-07-27T20:08:19.199Z,56.89
2022-07-27T20:10:47.221Z,56.85
2022-07-27T20:13:14.613Z,56.79
2022-07-27T20:15:41.209Z,56.84
2022-07-27T20:18:07.891Z,56.78
2022-07-27T20:20:34.782Z,57.18
2022-07-27T20:23:02.133Z,57.01
2022-07-27T20:25:28.673Z,57.52
2022-07-27T20:27:55.172Z,57.87
2022-07-27T20:30:21.765Z,58.00
2022-07-27T20:32:48.967Z,57.88
2022-07-27T20:35:16.078Z,58.00
2022-07-27T20:37:44.408Z,57.71
2022-07-27T20:40:11.874Z,58.21
2022-07-27T20:42:41.224Z,57.89
2022-07-27T20:45:10.075Z,58.21
2022-07-27T20:47:40.117Z,57.91
2022-07-27T20:50:14.895Z,58.11
2022-07-27T20:52:42.061Z,58.03
2022-07-27T20:55:10.091Z,58.14
2022-07-27T20:57:36.888Z,59.07
2022-07-27T21:00:06.366Z,59.26
2022-07-27T21:02:33.087Z,59.11
2022-07-27T21:04:59.816Z,58.71
2022-07-27T21:07:28.098Z,58.60
2022-07-27T21:09:54.721Z,58.77
2022-07-27T21:12:21.170Z,58.63
2022-07-27T21:14:47.675Z,59.45
2022-07-27T21:17:14.151Z,59.12
2022-07-27T21:19:40.651Z,59.39
2022-07-27T21:22:07.121Z,60.00
2022-07-27T21:24:33.886Z,59.64
2022-07-27T21:27:05.489Z,59.81
2022-07-27T21:29:33.331Z,59.61
2022-07-27T21:32:00.722Z,59.94
2022-07-27T21:34:27.380Z,60.00
2022-07-27T21:36:53.859Z,59.51
2022-07-27T21:39:20.806Z,59.58
2022-07-27T21:41:47.400Z,60.16
2022-07-27T21:44:14.445Z,60.05
2022-07-27T21:46:41.596Z,60.67
2022-07-27T21:49:08.351Z,60.83
2022-07-27T21:51:34.966Z,60.93
2022-07-27T21:54:01.905Z,60.78
2022-07-27T21:56:28.664Z,61.04
2022-07-27T21:58:55.352Z,61.24
2022-07-27T22:01:22.283Z,60.91
2022-07-27T22:03:49.274Z,61.40
2022-07-27T22:06:16.007Z,61.72
2022-07-27T22:08:43.000Z,61.82
2022-07-27T22:11:10.393Z,62.01
2022-07-27T22:13:36.809Z,62.06
2022-07-27T22:16:04.338Z,62.58
2022-07-27T22:18:31.004Z,62.28
2022-07-27T22:20:58.763Z,62.49
2022-07-27T22:23:25.382Z,62.25
2022-07-27T22:25:52.791Z,62.24
2022-07-27T22:28:19.232Z,62.38
2022-07-27T22:31:20.484Z,62.69
2022-07-27T22:33:37.152Z,62.69
2022-07-27T22:36:06.741Z,62.90
2022-07-27T22:38:33.711Z,62.97
2022-07-27T22:41:00.735Z,62.69
2022-07-27T22:43:27.199Z,63.00
2022-07-27T22:45:55.261Z,63.25
2022-07-27T22:48:21.764Z,62.84
2022-07-27T22:50:48.769Z,63.44
2022-07-27T22:53:15.815Z,63.68
2022-07-27T22:55:42.484Z,63.69
2022-07-27T22:58:08.955Z,64.61
2022-07-27T23:00:35.480Z,64.62
2022-07-27T23:03:02.229Z,64.42
2022-07-27T23:05:29.031Z,64.82
2022-07-27T23:07:55.935Z,65.26
2022-07-27T23:10:41.401Z,65.84
2022-07-27T23:13:08.387Z,66.14
2022-07-27T23:15:37.032Z,66.98
2022-07-27T23:18:03.719Z,66.87
2022-07-27T23:20:30.871Z,67.10
2022-07-27T23:22:58.885Z,67.45
2022-07-27T23:25:36.349Z,67.20
2022-07-27T23:28:04.194Z,66.89
2022-07-27T23:30:31.057Z,66.44
2022-07-27T23:32:57.562Z,66.08
2022-07-27T23:35:24.091Z,66.29
2022-07-27T23:37:50.975Z,66.56
2022-07-27T23:40:17.445Z,66.18
2022-07-27T23:42:44.195Z,66.67
2022-07-27T23:45:11.159Z,66.33
2022-07-27T23:47:37.570Z,66.43
2022-07-27T23:50:04.342Z,66.37
2022-07-27T23:52:30.952Z,66.57
2022-07-27T23:54:58.658Z,67.02
2022-07-27T23:57:25.226Z,67.26
2022-07-27T23:59:52.000Z,67.61
